Sakai-Minato, Japan
Current Conditions -  °F | °C
As of 2:00 PM on Friday 28 Nov 2014 (Local Time) from RJOH Reporting Station
Broken Clouds Broken Clouds  
Wind Chill: 66°   Ceiling: 16000
Heat Index: 66°   Visibility: 6mi
Dew Point: 48°   Wind: 10mph
Humidity: 52%   Direction: 150°SSE
Pressure: 30.03"   Gusts: NA
Location:  35.53°N, 133.24°E
Report Text: RJOH 280500Z 15009KT 9999 FEW050 SCT060 BKN160 19/09 Q1017
Loading
Personal Weather Stations






























Interactive Weather Map New forecast layout! Learn more

10-Day Weather Forecast

Advertisements
Track Severe Weather on mobile